Time;durP1;ratioP1;P1;durP2;ratioP2;P2;SDS_P1;SDS_P2;PMS_P1;PMS_P2;Temp;Humidity;BMP_temperature;BMP_pressure;BME280_temperature;BME280_humidity;BME280_pressure;Samples;Min_cycle;Max_cycle;Signal;HPM_P1;HPM_P2
2022/05/06 00:01:44;;;;;;;;;;;10.30;99.90;;;;;;5086666;28;19975;-68
2022/05/06 00:04:10;;;;;;;;;;;9.90;99.90;;;;;;5093117;28;19976;-68
2022/05/06 00:06:35;;;;;;;;;;;9.90;99.90;;;;;;5094512;28;19970;-68
2022/05/06 00:09:01;;;;;;;;;;;9.90;99.90;;;;;;5113490;27;19946;-68
2022/05/06 00:11:31;;;;;;;;;;;9.90;99.90;;;;;;5127726;27;19924;-69
2022/05/06 00:13:57;;;;;;;;;;;10.80;99.90;;;;;;5093130;28;19924;-70
2022/05/06 00:16:23;;;;;;;;;;;9.80;99.90;;;;;;5093610;28;19970;-68
2022/05/06 00:18:49;;;;;;;;;;;10.00;99.90;;;;;;5086786;28;20011;-69
2022/05/06 00:21:14;;;;;;;;;;;9.80;99.90;;;;;;5094246;28;19931;-68
2022/05/06 00:23:40;;;;;;;;;;;9.80;99.90;;;;;;5093905;28;19924;-69
2022/05/06 00:26:06;;;;;;;;;;;9.80;99.90;;;;;;5094641;28;19924;-69
2022/05/06 00:28:32;;;;;;;;;;;9.70;99.90;;;;;;5110235;27;20027;-68
2022/05/06 00:30:58;;;;;;;;;;;9.70;99.90;;;;;;5088642;28;19975;-68
2022/05/06 00:33:24;;;;;;;;;;;9.70;99.90;;;;;;5092535;28;19928;-67
2022/05/06 00:35:53;;;;;;;;;;;9.70;99.90;;;;;;5106234;28;20015;-68
2022/05/06 00:38:19;;;;;;;;;;;9.70;99.90;;;;;;5079251;28;19943;-69
2022/05/06 00:40:45;;;;;;;;;;;9.60;99.90;;;;;;5092702;28;20013;-68
2022/05/06 00:43:11;;;;;;;;;;;9.60;99.90;;;;;;5092110;28;19924;-68
2022/05/06 00:45:39;;;;;;;;;;;9.60;99.90;;;;;;5085467;28;19976;-68
2022/05/06 00:48:06;;;;;;;;;;;9.60;99.90;;;;;;5090126;28;19924;-69
2022/05/06 00:50:32;;;;;;;;;;;9.50;99.90;;;;;;5092121;28;20332;-68
2022/05/06 00:52:57;;;;;;;;;;;9.50;99.90;;;;;;5091431;28;19977;-68
2022/05/06 00:55:23;;;;;;;;;;;9.50;99.90;;;;;;5092726;28;19924;-69
2022/05/06 00:57:49;;;;;;;;;;;9.50;99.90;;;;;;5093249;28;19924;-69
2022/05/06 01:00:20;;;;;;;;;;;9.50;99.90;;;;;;5093039;28;19930;-68
2022/05/06 01:02:46;;;;;;;;;;;9.40;99.90;;;;;;5093429;28;20380;-68
2022/05/06 01:05:12;;;;;;;;;;;10.20;99.90;;;;;;5091655;28;20440;-68
2022/05/06 01:07:38;;;;;;;;;;;9.40;99.90;;;;;;5093458;28;20018;-68
2022/05/06 01:10:04;;;;;;;;;;;9.40;99.90;;;;;;5092980;28;19924;-69
2022/05/06 01:12:30;;;;;;;;;;;9.40;99.90;;;;;;5091852;28;20080;-68
2022/05/06 01:14:55;;;;;;;;;;;9.40;99.90;;;;;;5091353;28;19931;-68
2022/05/06 01:17:22;;;;;;;;;;;9.30;99.90;;;;;;5090233;28;19924;-69
2022/05/06 01:19:47;;;;;;;;;;;9.30;99.90;;;;;;5091420;28;19977;-68
2022/05/06 01:22:14;;;;;;;;;;;9.30;99.90;;;;;;5093105;28;19928;-69
2022/05/06 01:24:40;;;;;;;;;;;9.30;99.90;;;;;;5082641;28;19945;-69
2022/05/06 01:27:11;;;;;;;;;;;9.30;99.90;;;;;;5090553;28;19950;-67
2022/05/06 01:29:37;;;;;;;;;;;9.30;99.90;;;;;;5091871;28;19924;-68
2022/05/06 01:32:03;;;;;;;;;;;9.30;99.90;;;;;;5089686;28;19939;-67
2022/05/06 01:34:30;;;;;;;;;;;9.20;99.90;;;;;;5091272;28;19969;-68
2022/05/06 01:37:00;;;;;;;;;;;9.20;99.90;;;;;;5092578;28;19931;-68
2022/05/06 01:39:29;;;;;;;;;;;9.20;99.90;;;;;;5086096;28;19931;-68
2022/05/06 01:41:58;;;;;;;;;;;9.20;99.90;;;;;;5089039;28;19924;-68
2022/05/06 01:44:26;;;;;;;;;;;9.10;99.90;;;;;;5092445;28;19924;-68
2022/05/06 01:46:53;;;;;;;;;;;9.50;99.90;;;;;;5090972;28;19924;-68
2022/05/06 01:49:19;;;;;;;;;;;9.10;99.90;;;;;;5092148;28;20392;-69
2022/05/06 01:51:44;;;;;;;;;;;9.00;99.90;;;;;;5090855;28;19960;-67
2022/05/06 01:54:10;;;;;;;;;;;9.00;99.90;;;;;;5075715;28;19930;-68
2022/05/06 01:56:35;;;;;;;;;;;9.00;99.90;;;;;;5098585;28;19924;-67
2022/05/06 01:59:01;;;;;;;;;;;9.30;99.90;;;;;;5087174;28;19924;-68
2022/05/06 02:01:27;;;;;;;;;;;9.00;99.90;;;;;;5083218;28;19924;-66
2022/05/06 02:06:37;;;;;;;;;;;9.00;99.90;;;;;;5098709;28;19931;-67
2022/05/06 02:09:02;;;;;;;;;;;8.90;99.90;;;;;;5095697;28;19948;-68
2022/05/06 02:11:28;;;;;;;;;;;8.90;99.90;;;;;;5088747;28;19977;-68
2022/05/06 02:13:55;;;;;;;;;;;8.90;99.90;;;;;;5088860;28;20439;-68
2022/05/06 02:16:20;;;;;;;;;;;8.30;99.90;;;;;;5085008;28;19924;-69
2022/05/06 02:18:46;;;;;;;;;;;8.90;99.90;;;;;;5092321;28;20289;-69
2022/05/06 02:21:11;;;;;;;;;;;8.90;99.90;;;;;;5090262;28;20203;-68
2022/05/06 02:23:37;;;;;;;;;;;9.10;99.90;;;;;;5089944;28;19978;-68
2022/05/06 02:26:02;;;;;;;;;;;9.90;99.90;;;;;;5087716;28;19928;-68
2022/05/06 02:28:28;;;;;;;;;;;9.60;99.90;;;;;;5079836;28;19924;-69
2022/05/06 02:33:38;;;;;;;;;;;8.80;99.90;;;;;;5085301;28;19924;-67
2022/05/06 02:36:03;;;;;;;;;;;8.80;99.90;;;;;;5087419;28;19924;-70
2022/05/06 02:38:29;;;;;;;;;;;8.80;99.90;;;;;;5091906;28;19928;-68
2022/05/06 02:40:55;;;;;;;;;;;8.80;99.90;;;;;;5091476;28;20320;-69
2022/05/06 02:43:21;;;;;;;;;;;8.80;99.90;;;;;;5092245;28;19937;-68
2022/05/06 02:45:47;;;;;;;;;;;8.80;99.90;;;;;;5090542;28;19949;-68
2022/05/06 02:48:12;;;;;;;;;;;8.80;99.90;;;;;;5083982;28;19924;-68
2022/05/06 02:50:38;;;;;;;;;;;8.80;99.90;;;;;;5089989;28;20007;-68
2022/05/06 02:53:04;;;;;;;;;;;8.90;99.90;;;;;;5089236;28;19928;-69
2022/05/06 02:55:31;;;;;;;;;;;8.80;99.90;;;;;;5090664;28;20263;-68
2022/05/06 02:57:57;;;;;;;;;;;8.80;99.90;;;;;;5084204;28;19932;-68
2022/05/06 03:00:23;;;;;;;;;;;8.80;99.90;;;;;;5090573;28;19931;-68
2022/05/06 03:02:50;;;;;;;;;;;8.90;99.90;;;;;;5094941;28;19931;-68
2022/05/06 03:05:16;;;;;;;;;;;8.80;99.90;;;;;;5095220;28;19920;-68
2022/05/06 03:07:41;;;;;;;;;;;8.90;99.90;;;;;;5082534;28;20381;-67
2022/05/06 03:10:09;;;;;;;;;;;8.80;99.90;;;;;;5091574;28;19928;-68
2022/05/06 03:12:35;;;;;;;;;;;8.80;99.90;;;;;;5079539;28;19946;-68
2022/05/06 03:15:03;;;;;;;;;;;8.80;99.90;;;;;;5095136;28;19924;-67
2022/05/06 03:17:30;;;;;;;;;;;9.60;99.90;;;;;;5089639;28;20397;-69
2022/05/06 03:19:56;;;;;;;;;;;8.90;99.90;;;;;;5118214;27;19924;-67
2022/05/06 03:22:21;;;;;;;;;;;9.30;99.90;;;;;;5086005;28;20335;-67
2022/05/06 03:24:47;;;;;;;;;;;8.90;99.90;;;;;;5094555;28;19924;-69
2022/05/06 03:29:57;;;;;;;;;;;9.00;99.90;;;;;;5094373;28;19981;-68
2022/05/06 03:32:27;;;;;;;;;;;9.00;99.90;;;;;;5094070;28;19931;-68
2022/05/06 03:34:53;;;;;;;;;;;9.40;99.90;;;;;;5095495;28;19959;-68
2022/05/06 03:37:18;;;;;;;;;;;9.00;99.90;;;;;;5094261;28;20456;-68
2022/05/06 03:39:44;;;;;;;;;;;9.00;99.90;;;;;;5089053;28;20286;-67
2022/05/06 03:42:10;;;;;;;;;;;9.00;99.90;;;;;;5100460;28;19925;-68
2022/05/06 03:44:35;;;;;;;;;;;9.00;99.90;;;;;;5096020;28;20405;-68
2022/05/06 03:47:01;;;;;;;;;;;9.30;99.90;;;;;;5069106;28;19979;-69
2022/05/06 03:49:26;;;;;;;;;;;9.10;99.90;;;;;;5091324;28;19924;-69
2022/05/06 03:51:52;;;;;;;;;;;9.20;99.90;;;;;;5084686;28;19924;-67
2022/05/06 03:54:17;;;;;;;;;;;9.10;99.90;;;;;;5096976;28;19977;-68
2022/05/06 03:56:43;;;;;;;;;;;9.80;99.90;;;;;;5101029;28;19928;-67
2022/05/06 03:59:09;;;;;;;;;;;10.40;99.90;;;;;;5097087;28;19935;-68
2022/05/06 04:01:35;;;;;;;;;;;9.20;99.90;;;;;;5073839;28;20325;-68
2022/05/06 04:04:01;;;;;;;;;;;9.20;99.90;;;;;;5092926;28;19979;-67
2022/05/06 04:06:27;;;;;;;;;;;9.30;99.90;;;;;;5093530;28;20021;-68
2022/05/06 04:08:54;;;;;;;;;;;9.30;99.90;;;;;;5092363;28;19983;-67
2022/05/06 04:11:20;;;;;;;;;;;9.30;99.90;;;;;;5075507;28;20434;-68
2022/05/06 04:13:46;;;;;;;;;;;9.40;99.90;;;;;;5093440;28;19937;-68
2022/05/06 04:16:12;;;;;;;;;;;9.40;99.90;;;;;;5091805;28;19939;-68
2022/05/06 04:18:38;;;;;;;;;;;9.40;99.90;;;;;;5093583;28;19924;-67
2022/05/06 04:23:48;;;;;;;;;;;9.40;99.90;;;;;;5082558;28;19948;-68
2022/05/06 04:26:13;;;;;;;;;;;9.40;99.90;;;;;;5091774;28;20374;-69
2022/05/06 04:28:39;;;;;;;;;;;9.40;99.90;;;;;;5075339;28;20373;-68
2022/05/06 04:31:05;;;;;;;;;;;9.40;99.90;;;;;;5092516;28;19993;-67
2022/05/06 04:33:31;;;;;;;;;;;9.40;99.90;;;;;;5086992;28;20378;-68
2022/05/06 04:35:57;;;;;;;;;;;9.50;99.90;;;;;;5074731;28;20004;-68
2022/05/06 04:38:23;;;;;;;;;;;9.50;99.90;;;;;;5082365;28;19951;-68
2022/05/06 04:40:50;;;;;;;;;;;9.50;99.90;;;;;;5081989;28;19985;-68
2022/05/06 04:43:20;;;;;;;;;;;9.50;99.90;;;;;;5087708;28;19947;-69
2022/05/06 04:45:46;;;;;;;;;;;9.60;99.90;;;;;;5104719;28;20224;-68
2022/05/06 04:48:12;;;;;;;;;;;9.60;99.90;;;;;;5093072;28;19946;-69
2022/05/06 04:50:38;;;;;;;;;;;9.70;99.90;;;;;;5091220;28;20397;-68
2022/05/06 04:53:07;;;;;;;;;;;9.70;99.90;;;;;;5093467;28;20447;-67
2022/05/06 04:55:36;;;;;;;;;;;9.70;99.90;;;;;;5091974;28;19989;-67
2022/05/06 04:58:02;;;;;;;;;;;9.70;99.90;;;;;;5091896;28;20439;-66
2022/05/06 05:00:28;;;;;;;;;;;9.70;99.90;;;;;;5090840;28;19928;-69
2022/05/06 05:02:54;;;;;;;;;;;9.70;99.90;;;;;;5091707;28;20016;-68
2022/05/06 05:05:19;;;;;;;;;;;9.80;99.90;;;;;;5092949;28;20290;-68
2022/05/06 05:07:45;;;;;;;;;;;9.80;99.90;;;;;;5093094;28;20022;-68
2022/05/06 05:10:10;;;;;;;;;;;9.80;99.90;;;;;;5092923;28;20445;-67
2022/05/06 05:12:36;;;;;;;;;;;9.90;99.90;;;;;;5071318;28;19924;-68
2022/05/06 05:15:02;;;;;;;;;;;9.80;99.90;;;;;;5089612;28;20012;-68
2022/05/06 05:17:28;;;;;;;;;;;9.80;99.90;;;;;;5092658;28;20002;-68
2022/05/06 05:19:53;;;;;;;;;;;9.70;99.90;;;;;;5092399;28;19932;-67
2022/05/06 05:22:19;;;;;;;;;;;9.70;99.90;;;;;;5093592;28;20441;-69
2022/05/06 05:24:46;;;;;;;;;;;9.70;99.90;;;;;;5092839;28;19924;-68
2022/05/06 05:27:13;;;;;;;;;;;9.70;99.90;;;;;;5092631;28;19931;-68
2022/05/06 05:29:39;;;;;;;;;;;9.70;99.90;;;;;;5092959;28;19924;-68
2022/05/06 05:32:05;;;;;;;;;;;9.80;99.90;;;;;;5093125;28;19930;-69
2022/05/06 05:34:30;;;;;;;;;;;9.90;99.90;;;;;;5107274;28;19931;-67
2022/05/06 05:36:56;;;;;;;;;;;9.90;99.90;;;;;;5092948;28;19924;-68
2022/05/06 05:39:21;;;;;;;;;;;10.10;99.90;;;;;;5092211;28;20036;-68
2022/05/06 05:41:47;;;;;;;;;;;10.20;99.90;;;;;;5093339;28;19986;-68
2022/05/06 05:49:40;;;;;;;;;;;11.00;99.90;;;;;;5091266;28;19924;-68
2022/05/06 05:52:06;;;;;;;;;;;10.30;99.90;;;;;;5090734;28;19924;-68
2022/05/06 05:54:32;;;;;;;;;;;10.30;99.90;;;;;;5091300;28;20278;-68
2022/05/06 05:56:57;;;;;;;;;;;10.30;99.90;;;;;;5094558;28;19928;-67
2022/05/06 05:59:23;;;;;;;;;;;10.40;99.90;;;;;;5091165;28;19946;-68
2022/05/06 06:01:49;;;;;;;;;;;10.40;99.90;;;;;;5108393;28;20465;-69
2022/05/06 06:04:15;;;;;;;;;;;10.50;99.90;;;;;;5085910;28;19971;-69
2022/05/06 06:06:41;;;;;;;;;;;10.60;99.90;;;;;;5085598;28;19931;-69
2022/05/06 06:09:07;;;;;;;;;;;10.60;99.90;;;;;;5091968;28;19936;-68
2022/05/06 06:11:33;;;;;;;;;;;10.60;99.90;;;;;;5092407;28;20009;-68
2022/05/06 06:13:58;;;;;;;;;;;10.60;99.90;;;;;;5092059;28;19924;-68
2022/05/06 06:16:24;;;;;;;;;;;10.60;99.90;;;;;;5090794;28;19932;-68
2022/05/06 06:18:50;;;;;;;;;;;10.60;99.90;;;;;;5084117;28;19924;-68
2022/05/06 06:21:15;;;;;;;;;;;10.70;99.90;;;;;;5092604;28;19931;-68
2022/05/06 06:23:41;;;;;;;;;;;10.60;99.90;;;;;;5089528;28;19928;-68
2022/05/06 06:26:06;;;;;;;;;;;10.60;99.90;;;;;;5092335;28;20015;-69
2022/05/06 06:28:32;;;;;;;;;;;10.70;99.90;;;;;;5091918;28;20377;-68
2022/05/06 06:30:57;;;;;;;;;;;10.70;99.90;;;;;;5074512;28;19923;-68
2022/05/06 06:33:23;;;;;;;;;;;10.70;99.90;;;;;;5092476;28;20297;-68
2022/05/06 06:35:49;;;;;;;;;;;10.90;99.90;;;;;;5091875;28;19997;-69
2022/05/06 06:38:15;;;;;;;;;;;11.10;99.90;;;;;;5094496;28;19924;-68
2022/05/06 06:40:41;;;;;;;;;;;11.20;99.90;;;;;;5096587;28;19924;-68
2022/05/06 06:43:15;;;;;;;;;;;11.50;99.90;;;;;;5096146;28;19931;-71
2022/05/06 06:45:41;;;;;;;;;;;11.60;99.90;;;;;;5095970;28;19927;-70
2022/05/06 06:48:06;;;;;;;;;;;11.80;99.90;;;;;;5084183;28;20271;-68
2022/05/06 06:50:32;;;;;;;;;;;11.80;99.90;;;;;;5094130;28;19928;-68
2022/05/06 06:52:59;;;;;;;;;;;11.80;99.90;;;;;;5095173;28;19924;-66
2022/05/06 06:55:25;;;;;;;;;;;11.90;99.90;;;;;;5090452;28;19932;-68
2022/05/06 06:57:50;;;;;;;;;;;11.90;99.90;;;;;;5096112;28;20033;-68
2022/05/06 07:00:16;;;;;;;;;;;12.10;99.90;;;;;;5095173;28;19925;-66
2022/05/06 07:02:45;;;;;;;;;;;12.00;99.90;;;;;;5093880;28;19935;-66
2022/05/06 07:05:10;;;;;;;;;;;12.10;99.90;;;;;;5095381;28;20032;-68
2022/05/06 07:13:04;;;;;;;;;;;12.30;99.90;;;;;;5092786;28;19924;-67
2022/05/06 07:15:31;;;;;;;;;;;12.40;99.90;;;;;;5076742;28;19973;-68
2022/05/06 07:17:57;;;;;;;;;;;12.50;99.90;;;;;;5100020;28;19931;-68
2022/05/06 07:20:23;;;;;;;;;;;12.50;99.90;;;;;;5073229;28;20019;-68
2022/05/06 07:22:49;;;;;;;;;;;12.50;99.90;;;;;;5089874;28;20165;-67
2022/05/06 07:25:14;;;;;;;;;;;12.60;99.90;;;;;;5095718;28;19924;-68
2022/05/06 07:27:40;;;;;;;;;;;12.60;99.90;;;;;;5094176;28;20368;-68
2022/05/06 07:30:06;;;;;;;;;;;12.70;99.90;;;;;;5094608;28;19928;-67
2022/05/06 07:32:32;;;;;;;;;;;12.90;99.90;;;;;;5101728;28;20017;-67
2022/05/06 07:34:57;;;;;;;;;;;13.00;99.90;;;;;;5095316;28;20007;-67
2022/05/06 07:37:23;;;;;;;;;;;13.00;99.90;;;;;;5095059;28;19931;-68
2022/05/06 07:39:49;;;;;;;;;;;12.90;99.90;;;;;;5072859;28;19924;-67
2022/05/06 07:42:14;;;;;;;;;;;13.00;99.90;;;;;;5091052;28;20010;-67
2022/05/06 07:44:40;;;;;;;;;;;13.00;99.90;;;;;;5094606;28;19931;-68
2022/05/06 07:47:05;;;;;;;;;;;12.90;99.90;;;;;;5094515;28;19971;-67
2022/05/06 07:49:31;;;;;;;;;;;13.00;99.90;;;;;;5094335;28;19967;-68
2022/05/06 07:51:57;;;;;;;;;;;13.10;99.90;;;;;;5094784;28;20370;-68
2022/05/06 07:54:22;;;;;;;;;;;13.10;99.90;;;;;;5094789;28;20281;-69
2022/05/06 07:56:48;;;;;;;;;;;13.20;99.90;;;;;;5093202;28;20361;-68
2022/05/06 07:59:13;;;;;;;;;;;13.70;99.90;;;;;;5093819;28;19975;-68
2022/05/06 08:04:38;;;;;;;;;;;13.50;99.90;;;;;;5093605;28;19981;-68
2022/05/06 08:07:05;;;;;;;;;;;13.70;99.90;;;;;;5094934;28;20022;-69
2022/05/06 08:09:31;;;;;;;;;;;13.90;99.90;;;;;;5093854;28;20326;-69
2022/05/06 08:11:57;;;;;;;;;;;14.00;99.90;;;;;;5094099;28;19967;-67
2022/05/06 08:14:24;;;;;;;;;;;14.00;99.90;;;;;;5094064;28;19924;-67
2022/05/06 08:16:50;;;;;;;;;;;14.10;99.90;;;;;;5089963;28;20027;-67
2022/05/06 08:19:17;;;;;;;;;;;15.10;99.90;;;;;;5092307;28;19930;-67
2022/05/06 08:21:42;;;;;;;;;;;14.30;99.90;;;;;;5094404;28;19924;-68
2022/05/06 08:24:08;;;;;;;;;;;14.50;99.90;;;;;;5095760;28;19935;-68
2022/05/06 08:26:34;;;;;;;;;;;14.60;99.90;;;;;;5094245;28;20271;-68
2022/05/06 08:28:59;;;;;;;;;;;14.80;99.90;;;;;;5095348;28;20238;-68
2022/05/06 08:31:27;;;;;;;;;;;15.00;99.90;;;;;;5094064;28;19935;-69
2022/05/06 08:34:06;;;;;;;;;;;15.10;99.90;;;;;;5094018;28;20277;-68
2022/05/06 08:36:32;;;;;;;;;;;15.10;99.90;;;;;;5094075;28;20007;-68
2022/05/06 08:38:58;;;;;;;;;;;15.10;99.90;;;;;;5089205;28;19986;-67
2022/05/06 08:41:24;;;;;;;;;;;15.20;99.90;;;;;;5090543;28;20352;-68
2022/05/06 08:43:50;;;;;;;;;;;15.30;99.90;;;;;;5093171;28;19931;-67
2022/05/06 08:51:47;;;;;;;;;;;15.40;99.90;;;;;;5091733;28;19966;-68
2022/05/06 08:54:13;;;;;;;;;;;15.70;99.90;;;;;;5094044;28;19924;-69
2022/05/06 08:56:38;;;;;;;;;;;15.70;99.90;;;;;;5091119;28;19996;-67
2022/05/06 08:59:04;;;;;;;;;;;15.80;99.90;;;;;;5093385;28;19924;-68
2022/05/06 09:01:35;;;;;;;;;;;16.00;99.90;;;;;;5091597;28;20301;-68
2022/05/06 09:04:01;;;;;;;;;;;16.60;99.90;;;;;;5092657;28;20019;-67
2022/05/06 09:06:28;;;;;;;;;;;16.70;99.90;;;;;;5092219;28;20073;-69
2022/05/06 09:08:54;;;;;;;;;;;16.90;99.90;;;;;;5093331;28;19931;-67
2022/05/06 09:12:40;;;;;;;;;;;17.00;99.90;;;;;;5093072;28;19931;-69
2022/05/06 09:14:07;;;;;;;;;;;17.10;99.90;;;;;;5092715;28;19931;-68
2022/05/06 09:16:42;;;;;;;;;;;17.20;99.90;;;;;;5090111;28;19939;-67
2022/05/06 09:19:21;;;;;;;;;;;17.40;99.90;;;;;;5103354;27;20378;-67
2022/05/06 09:22:05;;;;;;;;;;;17.70;99.90;;;;;;5089480;28;19976;-68
2022/05/06 09:24:32;;;;;;;;;;;17.90;99.90;;;;;;5106161;27;19928;-69
2022/05/06 09:27:01;;;;;;;;;;;18.10;99.90;;;;;;5091837;28;19924;-68
2022/05/06 09:29:41;;;;;;;;;;;18.20;99.90;;;;;;5092625;28;20386;-69
2022/05/06 09:32:20;;;;;;;;;;;18.50;99.90;;;;;;5092261;28;19928;-68
2022/05/06 09:34:53;;;;;;;;;;;18.70;99.90;;;;;;5091363;28;20362;-68
2022/05/06 09:37:32;;;;;;;;;;;18.80;99.90;;;;;;5085636;28;19928;-70
2022/05/06 09:40:18;;;;;;;;;;;19.00;99.90;;;;;;5079067;28;19981;-70
2022/05/06 09:42:44;;;;;;;;;;;19.10;99.90;;;;;;5075124;28;19975;-68
2022/05/06 09:45:13;;;;;;;;;;;19.20;99.60;;;;;;5090053;28;19963;-69
2022/05/06 09:47:40;;;;;;;;;;;19.20;99.90;;;;;;5091304;28;19932;-70
2022/05/06 09:50:07;;;;;;;;;;;19.30;99.90;;;;;;5090370;28;19924;-69
2022/05/06 09:52:33;;;;;;;;;;;19.50;99.90;;;;;;5089329;28;20031;-70
2022/05/06 09:55:00;;;;;;;;;;;19.60;99.90;;;;;;5081326;28;19951;-70
2022/05/06 09:57:26;;;;;;;;;;;20.00;99.90;;;;;;5090521;28;20015;-70
2022/05/06 09:59:51;;;;;;;;;;;20.10;98.30;;;;;;5085127;28;20016;-69
2022/05/06 10:02:18;;;;;;;;;;;19.90;97.60;;;;;;5090456;28;19931;-68
2022/05/06 10:04:44;;;;;;;;;;;19.90;98.10;;;;;;5090276;28;19964;-69
2022/05/06 10:07:13;;;;;;;;;;;19.90;98.60;;;;;;5085665;28;20020;-69
2022/05/06 10:09:40;;;;;;;;;;;20.00;97.60;;;;;;5085645;28;19935;-69
2022/05/06 10:12:07;;;;;;;;;;;20.00;97.40;;;;;;5089648;28;19924;-69
2022/05/06 10:14:34;;;;;;;;;;;20.00;96.30;;;;;;5090343;28;19924;-69
2022/05/06 10:16:59;;;;;;;;;;;19.90;96.60;;;;;;5086338;28;19924;-68
2022/05/06 10:19:44;;;;;;;;;;;19.80;97.90;;;;;;5096025;27;19934;-69
2022/05/06 10:22:10;;;;;;;;;;;20.10;98.10;;;;;;5086238;28;20115;-69
2022/05/06 10:24:43;;;;;;;;;;;20.30;97.50;;;;;;5079720;28;20576;-68
2022/05/06 10:33:15;;;;;;;;;;;20.90;94.60;;;;;;5085921;28;19928;-68
2022/05/06 10:35:41;;;;;;;;;;;21.10;94.00;;;;;;5086500;28;19928;-68
2022/05/06 10:38:17;;;;;;;;;;;21.20;95.10;;;;;;5088372;28;19935;-68
2022/05/06 10:40:49;;;;;;;;;;;21.50;93.30;;;;;;5088256;28;19982;-67
2022/05/06 10:43:34;;;;;;;;;;;21.70;92.20;;;;;;5079150;28;20495;-71
2022/05/06 10:45:59;;;;;;;;;;;21.80;90.70;;;;;;5088373;28;19932;-67
2022/05/06 10:48:25;;;;;;;;;;;21.80;90.50;;;;;;5083589;28;20015;-68
2022/05/06 10:50:50;;;;;;;;;;;21.80;90.00;;;;;;5085510;28;19928;-70
2022/05/06 10:53:42;;;;;;;;;;;21.90;90.20;;;;;;5085970;28;19934;-67
2022/05/06 10:56:08;;;;;;;;;;;22.10;90.80;;;;;;5084837;28;19935;-70
2022/05/06 10:58:33;;;;;;;;;;;22.30;88.10;;;;;;5087593;28;19932;-69
2022/05/06 11:00:59;;;;;;;;;;;22.50;85.30;;;;;;5086541;28;19928;-69
2022/05/06 11:03:25;;;;;;;;;;;22.70;83.60;;;;;;5087350;28;19939;-69
2022/05/06 11:05:52;;;;;;;;;;;22.20;84.90;;;;;;5086167;28;19928;-68
2022/05/06 11:08:21;;;;;;;;;;;23.20;86.00;;;;;;5087323;28;20268;-67
2022/05/06 11:10:49;;;;;;;;;;;23.70;78.50;;;;;;5068647;28;20306;-69
2022/05/06 11:13:17;;;;;;;;;;;23.80;78.10;;;;;;5079468;28;19974;-68
2022/05/06 11:15:44;;;;;;;;;;;23.80;75.50;;;;;;5088173;28;19961;-69
2022/05/06 11:18:10;;;;;;;;;;;23.90;75.60;;;;;;5088768;28;20309;-67
2022/05/06 11:20:38;;;;;;;;;;;24.00;75.40;;;;;;5072933;28;19929;-67
2022/05/06 11:23:09;;;;;;;;;;;24.30;77.10;;;;;;5091787;28;19928;-68
2022/05/06 11:25:42;;;;;;;;;;;24.50;71.30;;;;;;5091903;28;19951;-69
2022/05/06 11:28:13;;;;;;;;;;;24.40;69.30;;;;;;5090475;28;20365;-69
2022/05/06 11:30:42;;;;;;;;;;;24.20;70.50;;;;;;5092628;28;19928;-68
2022/05/06 11:33:07;;;;;;;;;;;24.30;74.70;;;;;;5092520;28;19928;-69
2022/05/06 11:35:39;;;;;;;;;;;24.40;68.90;;;;;;5091714;28;20443;-69
2022/05/06 11:38:05;;;;;;;;;;;24.60;66.80;;;;;;5090814;28;20018;-69
2022/05/06 11:42:57;;;;;;;;;;;24.60;69.60;;;;;;5091820;28;20019;-69
2022/05/06 11:48:08;;;;;;;;;;;24.70;68.50;;;;;;5092119;28;19932;-69
2022/05/06 11:50:34;;;;;;;;;;;24.80;71.00;;;;;;5089952;28;20389;-68
2022/05/06 11:53:04;;;;;;;;;;;24.80;70.00;;;;;;5086875;28;19982;-69
2022/05/06 11:55:30;;;;;;;;;;;25.00;72.80;;;;;;5090367;28;19934;-68
2022/05/06 11:57:58;;;;;;;;;;;25.10;70.20;;;;;;5089176;28;20300;-70
2022/05/06 12:00:25;;;;;;;;;;;25.20;67.30;;;;;;5091575;28;20013;-69
2022/05/06 12:02:51;;;;;;;;;;;24.90;69.20;;;;;;5090936;28;19932;-69
2022/05/06 12:05:17;;;;;;;;;;;24.90;69.70;;;;;;5082217;28;20336;-70
2022/05/06 12:07:44;;;;;;;;;;;24.80;69.70;;;;;;5090727;28;20007;-67
2022/05/06 12:10:10;;;;;;;;;;;24.70;68.20;;;;;;5090014;28;19935;-69
2022/05/06 12:12:58;;;;;;;;;;;24.70;70.00;;;;;;5092750;28;19928;-70
2022/05/06 12:15:31;;;;;;;;;;;25.00;65.40;;;;;;5091089;28;19928;-68
2022/05/06 12:18:00;;;;;;;;;;;25.00;67.30;;;;;;5074917;28;19951;-67
2022/05/06 12:20:29;;;;;;;;;;;24.80;64.80;;;;;;5080462;28;20013;-68
2022/05/06 12:22:55;;;;;;;;;;;25.00;68.60;;;;;;5108984;28;19928;-68
2022/05/06 12:25:21;;;;;;;;;;;24.90;65.60;;;;;;5093673;28;20393;-68
2022/05/06 12:28:01;;;;;;;;;;;25.10;67.50;;;;;;5094347;28;19928;-68
2022/05/06 12:30:29;;;;;;;;;;;25.30;66.20;;;;;;5075442;28;20545;-69
2022/05/06 12:33:01;;;;;;;;;;;25.30;67.00;;;;;;5090738;28;19928;-69
2022/05/06 12:35:27;;;;;;;;;;;25.70;68.70;;;;;;5091034;28;20019;-68
2022/05/06 12:37:53;;;;;;;;;;;26.30;68.40;;;;;;5092416;28;20437;-68
2022/05/06 12:40:19;;;;;;;;;;;26.70;68.20;;;;;;5092282;28;19935;-68
2022/05/06 12:42:44;;;;;;;;;;;27.20;66.10;;;;;;5091858;28;19928;-70
2022/05/06 12:45:11;;;;;;;;;;;27.60;65.20;;;;;;5092264;28;19928;-69
2022/05/06 12:50:21;;;;;;;;;;;27.90;62.40;;;;;;5092425;28;20020;-68
2022/05/06 12:52:47;;;;;;;;;;;27.90;62.10;;;;;;5098211;28;20023;-69
2022/05/06 12:55:13;;;;;;;;;;;28.00;60.90;;;;;;5105841;28;20004;-68
2022/05/06 12:57:39;;;;;;;;;;;28.10;60.30;;;;;;5107120;28;19927;-69
2022/05/06 13:00:05;;;;;;;;;;;27.90;60.50;;;;;;5090544;28;19935;-69
2022/05/06 13:02:31;;;;;;;;;;;27.80;61.40;;;;;;5087285;28;19928;-69
2022/05/06 13:04:57;;;;;;;;;;;27.60;59.90;;;;;;5091826;28;19970;-68
2022/05/06 13:07:22;;;;;;;;;;;28.00;60.10;;;;;;5091211;28;19928;-68
2022/05/06 13:09:48;;;;;;;;;;;28.20;59.40;;;;;;5090706;28;19928;-67
2022/05/06 13:12:13;;;;;;;;;;;27.80;59.80;;;;;;5090794;28;19928;-67
2022/05/06 13:14:40;;;;;;;;;;;27.20;59.70;;;;;;5091169;28;19936;-68
2022/05/06 13:17:05;;;;;;;;;;;26.70;59.40;;;;;;5090990;28;20008;-68
2022/05/06 13:19:31;;;;;;;;;;;25.90;60.90;;;;;;5087773;28;19959;-69
2022/05/06 13:21:57;;;;;;;;;;;25.10;63.10;;;;;;5092503;28;19928;-68
2022/05/06 13:24:23;;;;;;;;;;;25.20;65.10;;;;;;5107010;28;19979;-67
2022/05/06 13:26:49;;;;;;;;;;;25.50;65.40;;;;;;5090928;28;19928;-68
2022/05/06 13:29:15;;;;;;;;;;;25.60;62.80;;;;;;5091339;28;20332;-68
2022/05/06 13:31:40;;;;;;;;;;;25.40;61.30;;;;;;5091368;28;19928;-68
2022/05/06 13:34:06;;;;;;;;;;;24.90;62.10;;;;;;5073169;28;19935;-67
2022/05/06 13:36:37;;;;;;;;;;;24.40;64.70;;;;;;5081279;28;19971;-68
2022/05/06 13:39:02;;;;;;;;;;;24.00;65.50;;;;;;5072267;28;19928;-68
2022/05/06 13:41:28;;;;;;;;;;;23.90;66.30;;;;;;5091572;28;19935;-69
2022/05/06 13:43:54;;;;;;;;;;;23.80;66.40;;;;;;5072700;28;19986;-69
2022/05/06 13:46:20;;;;;;;;;;;23.80;66.50;;;;;;5075856;28;20361;-67
2022/05/06 13:48:45;;;;;;;;;;;23.70;68.20;;;;;;5084294;28;19928;-67
2022/05/06 13:51:11;;;;;;;;;;;23.60;69.00;;;;;;5090562;28;19935;-68
2022/05/06 13:53:36;;;;;;;;;;;23.60;69.00;;;;;;5090050;28;20235;-68
2022/05/06 13:59:06;;;;;;;;;;;23.20;71.00;;;;;;5089838;28;20065;-68
2022/05/06 14:01:33;;;;;;;;;;;23.10;74.30;;;;;;5090865;28;19924;-68
2022/05/06 14:03:59;;;;;;;;;;;23.80;71.60;;;;;;5072314;28;19998;-67
2022/05/06 14:06:24;;;;;;;;;;;24.50;70.20;;;;;;5077831;28;19982;-68
2022/05/06 14:08:50;;;;;;;;;;;25.00;66.40;;;;;;5089782;28;19928;-69
2022/05/06 14:11:16;;;;;;;;;;;25.50;66.10;;;;;;5089424;28;19927;-69
2022/05/06 14:13:42;;;;;;;;;;;26.00;63.40;;;;;;5084958;28;19976;-67
2022/05/06 14:16:08;;;;;;;;;;;26.10;60.80;;;;;;5089402;28;19928;-68
2022/05/06 14:18:36;;;;;;;;;;;25.60;61.70;;;;;;5077550;28;19928;-70
2022/05/06 14:21:03;;;;;;;;;;;24.80;63.30;;;;;;5069468;28;19936;-69
2022/05/06 14:23:28;;;;;;;;;;;24.10;65.30;;;;;;5104076;28;19928;-68
2022/05/06 14:25:54;;;;;;;;;;;23.70;66.50;;;;;;5089454;28;19928;-70
2022/05/06 14:28:20;;;;;;;;;;;23.30;68.50;;;;;;5089416;28;20390;-69
2022/05/06 14:30:46;;;;;;;;;;;22.90;69.40;;;;;;5089888;28;20330;-67
2022/05/06 14:33:11;;;;;;;;;;;22.60;69.30;;;;;;5088330;28;20300;-68
2022/05/06 14:35:37;;;;;;;;;;;22.30;71.00;;;;;;5089923;28;19932;-68
2022/05/06 14:38:03;;;;;;;;;;;22.10;72.70;;;;;;5079964;28;21217;-68
2022/05/06 14:40:29;;;;;;;;;;;22.00;74.70;;;;;;5094080;28;20011;-68
2022/05/06 14:42:56;;;;;;;;;;;21.80;74.30;;;;;;5081430;28;20056;-68
2022/05/06 14:45:22;;;;;;;;;;;21.80;76.60;;;;;;5081024;28;19932;-67
2022/05/06 14:47:47;;;;;;;;;;;21.80;77.90;;;;;;5087994;28;19943;-68
2022/05/06 14:50:13;;;;;;;;;;;21.80;77.70;;;;;;5083339;28;20446;-68
2022/05/06 14:52:39;;;;;;;;;;;21.90;78.70;;;;;;5085916;28;20385;-68
2022/05/06 14:55:05;;;;;;;;;;;22.00;78.30;;;;;;5066222;28;19928;-70
2022/05/06 14:57:31;;;;;;;;;;;22.20;76.50;;;;;;5081279;28;20380;-68
2022/05/06 14:59:56;;;;;;;;;;;22.20;77.20;;;;;;5081361;28;19928;-68
2022/05/06 15:02:22;;;;;;;;;;;22.20;75.20;;;;;;5086485;28;19986;-68
2022/05/06 15:04:47;;;;;;;;;;;22.20;76.00;;;;;;5091406;28;19975;-70
2022/05/06 15:07:13;;;;;;;;;;;22.10;75.60;;;;;;5068888;28;19932;-68